createdAt,value
2023-03-27T00:00:06.046Z,999.22
2023-03-27T00:01:06.102Z,999.23
2023-03-27T00:02:06.088Z,999.25
2023-03-27T00:03:06.136Z,999.23
2023-03-27T00:04:06.073Z,999.26
2023-03-27T00:05:06.023Z,999.28
2023-03-27T00:06:06.055Z,999.26
2023-03-27T00:07:06.072Z,999.35
2023-03-27T00:08:06.091Z,999.30
2023-03-27T00:09:06.016Z,999.27
2023-03-27T00:10:05.965Z,999.37
2023-03-27T00:11:06.007Z,999.39
2023-03-27T00:12:05.991Z,999.46
2023-03-27T00:13:06.005Z,999.46
2023-03-27T00:14:05.984Z,999.49
2023-03-27T00:15:05.952Z,999.50
2023-03-27T00:16:05.989Z,999.58
2023-03-27T00:17:06.918Z,999.56
2023-03-27T00:18:05.911Z,999.54
2023-03-27T00:19:05.921Z,999.64
2023-03-27T00:20:05.879Z,999.68
2023-03-27T00:21:05.902Z,999.72
2023-03-27T00:22:05.843Z,999.71
2023-03-27T00:23:05.822Z,999.62
2023-03-27T00:24:06.124Z,999.81
2023-03-27T00:25:05.800Z,999.72
2023-03-27T00:26:07.472Z,999.89
2023-03-27T00:27:07.630Z,999.85
2023-03-27T00:28:06.044Z,999.83
2023-03-27T00:29:06.094Z,999.92
2023-03-27T00:30:05.809Z,999.90
2023-03-27T00:31:06.580Z,1000.00
2023-03-27T00:32:06.015Z,999.97
2023-03-27T00:33:05.881Z,1000.01
2023-03-27T00:34:06.010Z,1000.14
2023-03-27T00:35:06.448Z,1000.14
2023-03-27T00:36:05.759Z,1000.22
2023-03-27T00:37:05.778Z,1000.21
2023-03-27T00:38:07.399Z,1000.27
2023-03-27T00:39:05.758Z,1000.26
2023-03-27T00:40:05.734Z,1000.30
2023-03-27T00:41:05.711Z,1000.31
2023-03-27T00:42:05.629Z,1000.31
2023-03-27T00:43:05.664Z,1000.37
2023-03-27T00:44:05.648Z,1000.41
2023-03-27T00:45:05.841Z,1000.39
2023-03-27T00:46:06.398Z,1000.43
2023-03-27T00:47:06.349Z,1000.48
2023-03-27T00:48:05.686Z,1000.47
2023-03-27T00:49:06.413Z,1000.51
2023-03-27T00:50:05.569Z,1000.50
2023-03-27T00:51:05.563Z,1000.56
2023-03-27T00:52:06.409Z,1000.58
2023-03-27T00:53:05.573Z,1000.62
2023-03-27T00:54:05.666Z,1000.62
2023-03-27T00:55:05.495Z,1000.67
2023-03-27T00:56:05.491Z,1000.74
2023-03-27T00:57:05.600Z,1000.76
2023-03-27T00:58:05.472Z,1000.83
2023-03-27T00:59:05.495Z,1000.80
2023-03-27T01:00:06.701Z,1000.78
2023-03-27T01:01:05.501Z,1000.81
2023-03-27T01:02:05.426Z,1000.84
2023-03-27T01:03:05.580Z,1000.83
2023-03-27T01:04:05.409Z,1000.90
2023-03-27T01:05:05.413Z,1000.89
2023-03-27T01:06:05.484Z,1000.85
2023-03-27T01:07:05.417Z,1000.88
2023-03-27T01:08:05.373Z,1000.93
2023-03-27T01:09:05.360Z,1000.91
2023-03-27T01:10:05.339Z,1000.98
2023-03-27T01:11:05.338Z,1000.96
2023-03-27T01:12:05.364Z,1000.91
2023-03-27T01:13:05.322Z,1001.00
2023-03-27T01:14:05.368Z,1001.06
2023-03-27T01:15:05.374Z,1001.08
2023-03-27T01:16:05.326Z,1001.09
2023-03-27T01:17:05.288Z,1001.13
2023-03-27T01:18:05.333Z,1001.17
2023-03-27T01:19:05.251Z,1001.19
2023-03-27T01:20:05.248Z,1001.30
2023-03-27T01:21:05.279Z,1001.34
2023-03-27T01:22:05.251Z,1001.34
2023-03-27T01:23:05.269Z,1001.39
2023-03-27T01:24:05.226Z,1001.47
2023-03-27T01:25:05.209Z,1001.49
2023-03-27T01:26:05.192Z,1001.50
2023-03-27T01:27:05.175Z,1001.59
2023-03-27T01:28:05.224Z,1001.66
2023-03-27T01:29:05.156Z,1001.71
2023-03-27T01:30:05.170Z,1001.72
2023-03-27T01:31:05.197Z,1001.76
2023-03-27T01:32:05.133Z,1001.75
2023-03-27T01:33:05.149Z,1001.80
2023-03-27T01:34:05.147Z,1001.84
2023-03-27T01:35:05.125Z,1001.83
2023-03-27T01:36:05.148Z,1001.87
2023-03-27T01:37:05.076Z,1001.84
2023-03-27T01:38:05.058Z,1001.80
2023-03-27T01:39:05.109Z,1001.85
2023-03-27T01:40:05.109Z,1001.83
2023-03-27T01:41:05.039Z,1001.85
2023-03-27T01:42:05.039Z,1001.88
2023-03-27T01:43:05.024Z,1001.88
2023-03-27T01:44:05.045Z,1001.88
2023-03-27T01:45:05.064Z,1001.92
2023-03-27T01:46:05.022Z,1002.04
2023-03-27T01:47:05.016Z,1001.99
2023-03-27T01:48:05.917Z,1002.03
2023-03-27T01:49:04.983Z,1002.02
2023-03-27T01:50:04.951Z,1002.02
2023-03-27T01:51:04.990Z,1002.09
2023-03-27T01:52:04.951Z,1002.13
2023-03-27T01:53:04.948Z,1002.15
2023-03-27T01:54:04.926Z,1002.17
2023-03-27T01:55:04.919Z,1002.20
2023-03-27T01:56:04.902Z,1002.19
2023-03-27T01:57:04.901Z,1002.32
2023-03-27T01:58:04.930Z,1002.30
2023-03-27T01:59:04.899Z,1002.35
2023-03-27T02:00:18.186Z,1002.32
2023-03-27T02:01:05.082Z,1002.41
2023-03-27T02:02:04.848Z,1002.41
2023-03-27T02:03:04.923Z,1002.44
2023-03-27T02:04:04.884Z,1002.39
2023-03-27T02:05:04.836Z,1002.46
2023-03-27T02:06:04.790Z,1002.47
2023-03-27T02:07:04.832Z,1002.45
2023-03-27T02:08:04.775Z,1002.49
2023-03-27T02:09:04.785Z,1002.45
2023-03-27T02:10:04.771Z,1002.44
2023-03-27T02:11:04.752Z,1002.46
2023-03-27T02:12:04.731Z,1002.48
2023-03-27T02:13:04.722Z,1002.51
2023-03-27T02:14:04.746Z,1002.53
2023-03-27T02:15:23.100Z,1002.52
2023-03-27T02:16:04.786Z,1002.60
2023-03-27T02:17:04.673Z,1002.54
2023-03-27T02:18:04.778Z,1002.57
2023-03-27T02:19:04.660Z,1002.60
2023-03-27T02:20:04.683Z,1002.56
2023-03-27T02:21:04.639Z,1002.67
2023-03-27T02:22:04.666Z,1002.63
2023-03-27T02:23:04.638Z,1002.56
2023-03-27T02:24:04.657Z,1002.60
2023-03-27T02:25:04.614Z,1002.61
2023-03-27T02:26:04.601Z,1002.61
2023-03-27T02:27:04.592Z,1002.67
2023-03-27T02:28:04.606Z,1002.75
2023-03-27T02:29:04.602Z,1002.76
2023-03-27T02:30:04.605Z,1002.79
2023-03-27T02:31:06.734Z,1002.81
2023-03-27T02:32:04.620Z,1002.82
2023-03-27T02:33:04.588Z,1002.81
2023-03-27T02:34:04.881Z,1002.86
2023-03-27T02:35:04.551Z,1002.86
2023-03-27T02:36:04.534Z,1002.92
2023-03-27T02:37:04.506Z,1002.88
2023-03-27T02:38:04.505Z,1002.92
2023-03-27T02:39:04.465Z,1002.90
2023-03-27T02:40:04.523Z,1002.93
2023-03-27T02:41:04.460Z,1002.95
2023-03-27T02:42:04.501Z,1002.97
2023-03-27T02:43:04.445Z,1002.90
2023-03-27T02:44:04.421Z,1003.04
2023-03-27T02:45:04.399Z,1002.99
2023-03-27T02:46:04.514Z,1003.05
2023-03-27T02:47:04.540Z,1003.07
2023-03-27T02:48:04.447Z,1003.10
2023-03-27T02:49:04.378Z,1003.10
2023-03-27T02:50:04.398Z,1003.10
2023-03-27T02:51:04.409Z,1003.16
2023-03-27T02:52:04.344Z,1003.15
2023-03-27T02:53:04.348Z,1003.18
2023-03-27T02:54:04.335Z,1003.20
2023-03-27T02:55:04.343Z,1003.19
2023-03-27T02:56:04.318Z,1003.23
2023-03-27T02:57:04.332Z,1003.26
2023-03-27T02:58:04.896Z,1003.27
2023-03-27T02:59:04.318Z,1003.26
2023-03-27T03:00:04.285Z,1003.28
2023-03-27T03:01:04.288Z,1003.27
2023-03-27T03:02:04.324Z,1003.31
2023-03-27T03:03:04.308Z,1003.39
2023-03-27T03:04:04.241Z,1003.38
2023-03-27T03:05:04.228Z,1003.37
2023-03-27T03:06:04.222Z,1003.43
2023-03-27T03:07:04.217Z,1003.42
2023-03-27T03:08:04.187Z,1003.42
2023-03-27T03:09:04.238Z,1003.47
2023-03-27T03:10:04.175Z,1003.53
2023-03-27T03:11:04.206Z,1003.56
2023-03-27T03:12:04.188Z,1003.60
2023-03-27T03:13:04.157Z,1003.59
2023-03-27T03:14:04.128Z,1003.57
2023-03-27T03:15:04.214Z,1003.60
2023-03-27T03:16:04.108Z,1003.62
2023-03-27T03:17:04.138Z,1003.65
2023-03-27T03:18:04.117Z,1003.69
2023-03-27T03:19:04.086Z,1003.71
2023-03-27T03:20:04.110Z,1003.75
2023-03-27T03:21:04.087Z,1003.77
2023-03-27T03:22:04.070Z,1003.77
2023-03-27T03:23:04.067Z,1003.85
2023-03-27T03:24:04.084Z,1003.82
2023-03-27T03:25:04.006Z,1003.82
2023-03-27T03:26:04.051Z,1003.81
2023-03-27T03:27:04.053Z,1003.88
2023-03-27T03:28:03.985Z,1003.85
2023-03-27T03:29:04.012Z,1003.90
2023-03-27T03:30:03.981Z,1003.94
2023-03-27T03:31:03.965Z,1003.97
2023-03-27T03:32:03.995Z,1003.96
2023-03-27T03:33:04.031Z,1004.00
2023-03-27T03:34:04.088Z,1004.04
2023-03-27T03:35:03.958Z,1004.10
2023-03-27T03:36:03.960Z,1004.12
2023-03-27T03:37:03.912Z,1004.12
2023-03-27T03:38:03.957Z,1004.11
2023-03-27T03:39:03.884Z,1004.12
2023-03-27T03:40:03.892Z,1004.15
2023-03-27T03:41:03.872Z,1004.18
2023-03-27T03:42:03.859Z,1004.23
2023-03-27T03:43:03.849Z,1004.25
2023-03-27T03:44:03.833Z,1004.30
2023-03-27T03:45:03.945Z,1004.35
2023-03-27T03:46:04.039Z,1004.36
2023-03-27T03:47:03.878Z,1004.40
2023-03-27T03:48:03.822Z,1004.38
2023-03-27T03:49:03.863Z,1004.46
2023-03-27T03:50:03.803Z,1004.47
2023-03-27T03:51:03.756Z,1004.49
2023-03-27T03:52:05.013Z,1004.51
2023-03-27T03:53:03.737Z,1004.55
2023-03-27T03:54:03.732Z,1004.55
2023-03-27T03:55:03.718Z,1004.56
2023-03-27T03:56:03.761Z,1004.61
2023-03-27T03:57:03.746Z,1004.63
2023-03-27T03:58:03.910Z,1004.64
2023-03-27T03:59:03.696Z,1004.70
2023-03-27T04:00:03.702Z,1004.71
2023-03-27T04:01:03.704Z,1004.77
2023-03-27T04:02:03.790Z,1004.78
2023-03-27T04:03:03.675Z,1004.78
2023-03-27T04:04:03.682Z,1004.81
2023-03-27T04:05:08.669Z,1004.84
2023-03-27T04:06:03.657Z,1004.88
2023-03-27T04:07:03.634Z,1004.89
2023-03-27T04:08:03.594Z,1004.94
2023-03-27T04:09:03.601Z,1004.94
2023-03-27T04:10:03.578Z,1004.98
2023-03-27T04:11:03.580Z,1005.05
2023-03-27T04:12:03.652Z,1005.04
2023-03-27T04:13:03.925Z,1005.05
2023-03-27T04:14:03.532Z,1005.08
2023-03-27T04:15:03.590Z,1005.09
2023-03-27T04:16:03.505Z,1005.09
2023-03-27T04:17:03.508Z,1005.08
2023-03-27T04:18:03.643Z,1005.14
2023-03-27T04:19:03.502Z,1005.16
2023-03-27T04:20:03.476Z,1005.17
2023-03-27T04:21:03.594Z,1005.24
2023-03-27T04:22:03.643Z,1005.23
2023-03-27T04:23:03.429Z,1005.29
2023-03-27T04:24:03.444Z,1005.31
2023-03-27T04:25:03.418Z,1005.33
2023-03-27T04:26:03.453Z,1005.36
2023-03-27T04:27:03.426Z,1005.39
2023-03-27T04:28:03.426Z,1005.39
2023-03-27T04:29:03.425Z,1005.44
2023-03-27T04:30:03.382Z,1005.44
2023-03-27T04:31:03.386Z,1005.41
2023-03-27T04:32:03.368Z,1005.42
2023-03-27T04:33:03.440Z,1005.46
2023-03-27T04:34:03.380Z,1005.44
2023-03-27T04:35:03.323Z,1005.49
2023-03-27T04:36:06.084Z,1005.53
2023-03-27T04:37:03.261Z,1005.52
2023-03-27T04:38:03.307Z,1005.57
2023-03-27T04:39:03.338Z,1005.60
2023-03-27T04:40:04.265Z,1005.59
2023-03-27T04:41:03.277Z,1005.63
2023-03-27T04:42:03.296Z,1005.69
2023-03-27T04:43:03.254Z,1005.72
2023-03-27T04:44:03.376Z,1005.73
2023-03-27T04:45:03.194Z,1005.77
2023-03-27T04:46:03.166Z,1005.82
2023-03-27T04:47:03.181Z,1005.83
2023-03-27T04:48:03.323Z,1005.80
2023-03-27T04:49:03.153Z,1005.83
2023-03-27T04:50:03.219Z,1005.83
2023-03-27T04:51:03.144Z,1005.86
2023-03-27T04:52:03.141Z,1005.93
2023-03-27T04:53:03.104Z,1005.93
2023-03-27T04:54:03.135Z,1005.97
2023-03-27T04:55:03.081Z,1005.99
2023-03-27T04:56:03.082Z,1005.95
2023-03-27T04:57:03.117Z,1006.01
2023-03-27T04:58:03.134Z,1006.00
2023-03-27T04:59:03.103Z,1006.03
2023-03-27T05:00:03.081Z,1006.07
2023-03-27T05:01:03.048Z,1006.09
2023-03-27T05:02:03.052Z,1006.06
2023-03-27T05:03:03.085Z,1006.07
2023-03-27T05:04:03.080Z,1006.08
2023-03-27T05:05:02.973Z,1006.08
2023-03-27T05:06:02.996Z,1006.12
2023-03-27T05:07:02.989Z,1006.12
2023-03-27T05:08:03.796Z,1006.14
2023-03-27T05:09:03.289Z,1006.09
2023-03-27T05:10:02.977Z,1006.10
2023-03-27T05:11:02.938Z,1006.16
2023-03-27T05:12:02.925Z,1006.15
2023-03-27T05:13:02.950Z,1006.21
2023-03-27T05:14:02.929Z,1006.19
2023-03-27T05:15:02.903Z,1006.25
2023-03-27T05:16:02.997Z,1006.25
2023-03-27T05:17:02.889Z,1006.27
2023-03-27T05:18:02.944Z,1006.31
2023-03-27T05:19:02.861Z,1006.33
2023-03-27T05:20:02.847Z,1006.37
2023-03-27T05:21:02.959Z,1006.40
2023-03-27T05:22:02.818Z,1006.42
2023-03-27T05:23:02.832Z,1006.43
2023-03-27T05:24:02.914Z,1006.48
2023-03-27T05:25:02.787Z,1006.50
2023-03-27T05:26:02.784Z,1006.52
2023-03-27T05:27:02.787Z,1006.53
2023-03-27T05:28:02.845Z,1006.55
2023-03-27T05:29:02.772Z,1006.56
2023-03-27T05:30:02.736Z,1006.58
2023-03-27T05:31:02.815Z,1006.58
2023-03-27T05:32:02.738Z,1006.59
2023-03-27T05:33:03.003Z,1006.61
2023-03-27T05:34:02.727Z,1006.67
2023-03-27T05:35:02.734Z,1006.64
2023-03-27T05:36:02.733Z,1006.68
2023-03-27T05:37:02.657Z,1006.71
2023-03-27T05:38:02.665Z,1006.68
2023-03-27T05:39:02.728Z,1006.71
2023-03-27T05:40:02.670Z,1006.72
2023-03-27T05:41:02.654Z,1006.76
2023-03-27T05:42:02.606Z,1006.75
2023-03-27T05:43:02.628Z,1006.78
2023-03-27T05:44:02.600Z,1006.82
2023-03-27T05:45:02.630Z,1006.82
2023-03-27T05:46:02.604Z,1006.82
2023-03-27T05:47:02.595Z,1006.84
2023-03-27T05:48:02.697Z,1006.86
2023-03-27T05:49:02.564Z,1006.86
2023-03-27T05:50:02.616Z,1006.89
2023-03-27T05:51:02.623Z,1006.92
2023-03-27T05:52:02.536Z,1006.94
2023-03-27T05:53:02.505Z,1006.99
2023-03-27T05:54:02.501Z,1007.03
2023-03-27T05:55:02.492Z,1007.02
2023-03-27T05:56:03.653Z,1007.04
2023-03-27T05:57:02.611Z,1007.06
2023-03-27T05:58:02.454Z,1007.12
2023-03-27T05:59:02.471Z,1007.15
2023-03-27T06:00:02.506Z,1007.17
2023-03-27T06:01:02.491Z,1007.21
2023-03-27T06:02:02.508Z,1007.25
2023-03-27T06:03:02.500Z,1007.29
2023-03-27T06:04:02.533Z,1007.30
2023-03-27T06:05:02.417Z,1007.34
2023-03-27T06:06:02.450Z,1007.37
2023-03-27T06:07:02.382Z,1007.41
2023-03-27T06:08:02.428Z,1007.42
2023-03-27T06:09:02.396Z,1007.44
2023-03-27T06:10:02.361Z,1007.44
2023-03-27T06:11:02.417Z,1007.49
2023-03-27T06:12:02.313Z,1007.48
2023-03-27T06:13:02.396Z,1007.48
2023-03-27T06:14:02.317Z,1007.49
2023-03-27T06:15:02.329Z,1007.53
2023-03-27T06:16:02.285Z,1007.55
2023-03-27T06:17:02.263Z,1007.58
2023-03-27T06:18:02.330Z,1007.56
2023-03-27T06:19:02.255Z,1007.60
2023-03-27T06:20:02.262Z,1007.62
2023-03-27T06:21:02.450Z,1007.62
2023-03-27T06:22:02.223Z,1007.65
2023-03-27T06:23:02.227Z,1007.65
2023-03-27T06:24:02.283Z,1007.66
2023-03-27T06:25:02.186Z,1007.71
2023-03-27T06:26:02.193Z,1007.71
2023-03-27T06:27:02.182Z,1007.75
2023-03-27T06:28:02.170Z,1007.77
2023-03-27T06:29:02.158Z,1007.84
2023-03-27T06:30:02.161Z,1007.87
2023-03-27T06:31:02.528Z,1007.85
2023-03-27T06:32:02.116Z,1007.86
2023-03-27T06:33:02.193Z,1007.83
2023-03-27T06:34:02.185Z,1007.86
2023-03-27T06:35:02.099Z,1007.87
2023-03-27T06:36:02.097Z,1007.89
2023-03-27T06:37:02.097Z,1007.90
2023-03-27T06:38:02.069Z,1007.88
2023-03-27T06:39:02.101Z,1007.88
2023-03-27T06:40:02.319Z,1007.91
2023-03-27T06:41:02.099Z,1007.90
2023-03-27T06:42:02.072Z,1007.89
2023-03-27T06:43:02.098Z,1007.92
2023-03-27T06:44:02.016Z,1007.90
2023-03-27T06:45:02.017Z,1007.92
2023-03-27T06:46:02.052Z,1007.96
2023-03-27T06:47:01.981Z,1007.93
2023-03-27T06:48:16.056Z,1007.94
2023-03-27T06:49:02.224Z,1007.97
2023-03-27T06:50:02.032Z,1008.01
2023-03-27T06:51:01.977Z,1008.05
2023-03-27T06:52:02.010Z,1008.03
2023-03-27T06:53:03.073Z,1008.06
2023-03-27T06:54:02.504Z,1008.10
2023-03-27T06:55:02.036Z,1008.10
2023-03-27T06:56:01.998Z,1008.19
2023-03-27T06:57:02.061Z,1008.21
2023-03-27T06:58:01.945Z,1008.21
2023-03-27T06:59:02.063Z,1008.20
2023-03-27T07:00:02.589Z,1008.23
2023-03-27T07:01:02.106Z,1008.25
2023-03-27T07:02:02.029Z,1008.24
2023-03-27T07:03:01.946Z,1008.28
2023-03-27T07:04:01.848Z,1008.31
2023-03-27T07:05:05.336Z,1008.29
2023-03-27T07:06:02.129Z,1008.34
2023-03-27T07:07:01.777Z,1008.37
2023-03-27T07:08:11.398Z,1008.37
2023-03-27T07:09:01.781Z,1008.42
2023-03-27T07:10:01.778Z,1008.44
2023-03-27T07:11:11.578Z,1008.46
2023-03-27T07:12:01.777Z,1008.50
2023-03-27T07:13:01.755Z,1008.56
2023-03-27T07:14:01.868Z,1008.54
2023-03-27T07:15:01.784Z,1008.55
2023-03-27T07:16:01.752Z,1008.62
2023-03-27T07:17:01.746Z,1008.64
2023-03-27T07:18:01.748Z,1008.68
2023-03-27T07:19:02.523Z,1008.72
2023-03-27T07:20:01.674Z,1008.75
2023-03-27T07:21:01.656Z,1008.86
2023-03-27T07:22:01.629Z,1008.81
2023-03-27T07:23:01.645Z,1008.85
2023-03-27T07:24:01.691Z,1008.88
2023-03-27T07:25:01.628Z,1008.86
2023-03-27T07:26:01.663Z,1008.90
2023-03-27T07:27:01.648Z,1008.93
2023-03-27T07:28:01.898Z,1008.95
2023-03-27T07:29:01.622Z,1008.92
2023-03-27T07:30:01.624Z,1008.90
2023-03-27T07:31:01.643Z,1008.98
2023-03-27T07:32:06.064Z,1008.92
2023-03-27T07:33:01.645Z,1008.96
2023-03-27T07:34:01.582Z,1008.97
2023-03-27T07:35:01.491Z,1009.03
2023-03-27T07:36:01.560Z,1009.05
2023-03-27T07:37:01.519Z,1009.02
2023-03-27T07:38:01.509Z,1009.02
2023-03-27T07:39:02.053Z,1009.03
2023-03-27T07:40:01.456Z,1009.05
2023-03-27T07:41:01.456Z,1009.07
2023-03-27T07:42:01.410Z,1009.05
2023-03-27T07:43:01.469Z,1009.09
2023-03-27T07:44:01.446Z,1009.06
2023-03-27T07:45:02.797Z,1009.08
2023-03-27T07:46:01.457Z,1009.06
2023-03-27T07:47:01.420Z,1009.04
2023-03-27T07:48:01.538Z,1009.07
2023-03-27T07:49:01.471Z,1009.14
2023-03-27T07:50:01.354Z,1009.11
2023-03-27T07:52:01.325Z,1009.12
2023-03-27T07:53:01.376Z,1009.10
2023-03-27T07:54:01.439Z,1009.15
2023-03-27T07:55:01.316Z,1009.16
2023-03-27T07:56:01.916Z,1009.18
2023-03-27T07:57:01.797Z,1009.23
2023-03-27T07:58:03.245Z,1009.21
2023-03-27T07:59:01.345Z,1009.21
2023-03-27T08:00:01.345Z,1009.19
2023-03-27T08:01:01.273Z,1009.21
2023-03-27T08:02:01.229Z,1009.24
2023-03-27T08:03:01.552Z,1009.24
2023-03-27T08:04:01.585Z,1009.23
2023-03-27T08:05:01.372Z,1009.24
2023-03-27T08:06:01.817Z,1009.23
2023-03-27T08:07:01.235Z,1009.24
2023-03-27T08:08:01.213Z,1009.26
2023-03-27T08:09:02.838Z,1009.26
2023-03-27T08:10:01.258Z,1009.29
2023-03-27T08:11:01.507Z,1009.30
2023-03-27T08:12:01.282Z,1009.34
2023-03-27T08:13:01.772Z,1009.34
2023-03-27T08:14:01.300Z,1009.36
2023-03-27T08:15:01.143Z,1009.35
2023-03-27T08:16:01.778Z,1009.43
2023-03-27T08:17:14.753Z,1009.38
2023-03-27T08:18:01.229Z,1009.40
2023-03-27T08:19:01.174Z,1009.40
2023-03-27T08:20:01.251Z,1009.44
2023-03-27T08:21:01.142Z,1009.43
2023-03-27T08:22:01.127Z,1009.46
2023-03-27T08:23:01.357Z,1009.43
2023-03-27T08:24:01.065Z,1009.44
2023-03-27T08:25:01.231Z,1009.47
2023-03-27T08:26:01.809Z,1009.46
2023-03-27T08:27:01.162Z,1009.47
2023-03-27T08:28:00.994Z,1009.47
2023-03-27T08:29:01.063Z,1009.47
2023-03-27T08:30:01.135Z,1009.50
2023-03-27T08:31:02.405Z,1009.54
2023-03-27T08:32:01.531Z,1009.50
2023-03-27T08:33:01.040Z,1009.55
2023-03-27T08:34:01.116Z,1009.55
2023-03-27T08:35:01.095Z,1009.56
2023-03-27T08:36:01.041Z,1009.61
2023-03-27T08:37:00.978Z,1009.60
2023-03-27T08:38:01.027Z,1009.60
2023-03-27T08:39:01.175Z,1009.61
2023-03-27T08:40:01.201Z,1009.62
2023-03-27T08:41:01.024Z,1009.61
2023-03-27T08:42:00.937Z,1009.68
2023-03-27T08:43:00.894Z,1009.66
2023-03-27T08:44:00.931Z,1009.68
2023-03-27T08:45:00.830Z,1009.68
2023-03-27T08:46:00.882Z,1009.71
2023-03-27T08:47:00.854Z,1009.72
2023-03-27T08:48:00.923Z,1009.71
2023-03-27T08:49:00.844Z,1009.73
2023-03-27T08:50:00.782Z,1009.75
2023-03-27T08:51:00.752Z,1009.72
2023-03-27T08:52:00.907Z,1009.73
2023-03-27T08:53:00.920Z,1009.71
2023-03-27T08:54:00.860Z,1009.77
2023-03-27T08:55:00.723Z,1009.78
2023-03-27T08:56:00.708Z,1009.80
2023-03-27T08:57:00.769Z,1009.81
2023-03-27T08:58:00.704Z,1009.84
2023-03-27T08:59:00.667Z,1009.85
2023-03-27T09:00:00.782Z,1009.87
2023-03-27T09:01:00.677Z,1009.87
2023-03-27T09:02:00.722Z,1009.85
2023-03-27T09:03:00.739Z,1009.89
2023-03-27T09:04:00.755Z,1009.87
2023-03-27T09:05:00.601Z,1009.94
2023-03-27T09:06:00.650Z,1009.92
2023-03-27T09:07:00.585Z,1009.92
2023-03-27T09:08:00.604Z,1009.94
2023-03-27T09:09:00.565Z,1009.94
2023-03-27T09:10:00.577Z,1009.92
2023-03-27T09:11:00.587Z,1009.88
2023-03-27T09:12:00.595Z,1009.86
2023-03-27T09:13:00.557Z,1009.85
2023-03-27T09:14:00.553Z,1009.82
2023-03-27T09:15:00.637Z,1009.81
2023-03-27T09:16:00.692Z,1009.83
2023-03-27T09:17:00.570Z,1009.81
2023-03-27T09:18:00.616Z,1009.85
2023-03-27T09:19:00.569Z,1009.85
2023-03-27T09:20:01.452Z,1009.85
2023-03-27T09:21:00.477Z,1009.83
2023-03-27T09:22:00.498Z,1009.81
2023-03-27T09:23:00.528Z,1009.78
2023-03-27T09:24:00.517Z,1009.79
2023-03-27T09:25:00.412Z,1009.78
2023-03-27T09:26:00.476Z,1009.79
2023-03-27T09:27:07.144Z,1009.82
2023-03-27T09:28:00.407Z,1009.78
2023-03-27T09:29:00.374Z,1009.77
2023-03-27T09:30:06.141Z,1009.78
2023-03-27T09:31:00.412Z,1009.80
2023-03-27T09:32:00.331Z,1009.81
2023-03-27T09:33:00.344Z,1009.82
2023-03-27T09:34:00.330Z,1009.82
2023-03-27T09:35:00.306Z,1009.83
2023-03-27T09:36:00.775Z,1009.84
2023-03-27T09:37:00.323Z,1009.86
2023-03-27T09:38:00.326Z,1009.90
2023-03-27T09:39:00.306Z,1009.91
2023-03-27T09:40:00.273Z,1009.91
2023-03-27T09:41:00.292Z,1009.91
2023-03-27T09:42:00.262Z,1009.96
2023-03-27T09:43:00.479Z,1009.97
2023-03-27T09:44:00.403Z,1009.99
2023-03-27T09:45:00.286Z,1010.04
2023-03-27T09:46:00.272Z,1010.03
2023-03-27T09:47:00.339Z,1010.07
2023-03-27T09:48:00.261Z,1010.11
2023-03-27T09:49:00.166Z,1010.25
2023-03-27T09:50:00.247Z,1010.25
2023-03-27T09:51:00.170Z,1010.31
2023-03-27T09:52:00.247Z,1010.32
2023-03-27T09:53:00.325Z,1010.41
2023-03-27T09:54:00.171Z,1010.45
2023-03-27T09:55:00.132Z,1010.51
2023-03-27T09:56:02.455Z,1010.62
2023-03-27T09:57:00.183Z,1010.64
2023-03-27T09:58:00.182Z,1010.76
2023-03-27T09:59:00.077Z,1010.82
2023-03-27T10:00:00.173Z,1010.80
2023-03-27T10:01:00.061Z,1010.80
2023-03-27T10:02:00.053Z,1010.80
2023-03-27T10:03:00.222Z,1010.78
2023-03-27T10:04:01.024Z,1010.73
2023-03-27T10:05:00.280Z,1010.74
2023-03-27T10:06:00.958Z,1010.72
2023-03-27T10:07:00.058Z,1010.71
2023-03-27T10:07:59.986Z,1010.70
2023-03-27T10:09:00.052Z,1010.66
2023-03-27T10:09:59.984Z,1010.66
2023-03-27T10:10:59.990Z,1010.64
2023-03-27T10:11:59.956Z,1010.62
2023-03-27T10:12:59.932Z,1010.63
2023-03-27T10:13:59.936Z,1010.59
2023-03-27T10:14:59.961Z,1010.57
2023-03-27T10:15:59.935Z,1010.56
2023-03-27T10:16:59.946Z,1010.59
2023-03-27T10:17:59.992Z,1010.60
2023-03-27T10:18:59.888Z,1010.60
2023-03-27T10:19:59.897Z,1010.59
2023-03-27T10:20:59.859Z,1010.61
2023-03-27T10:21:59.877Z,1010.61
2023-03-27T10:22:59.853Z,1010.59
2023-03-27T10:23:59.848Z,1010.60
2023-03-27T10:24:59.844Z,1010.60
2023-03-27T10:25:59.810Z,1010.62
2023-03-27T10:26:59.821Z,1010.61
2023-03-27T10:27:59.838Z,1010.64
2023-03-27T10:28:59.836Z,1010.66
2023-03-27T10:29:59.802Z,1010.65
2023-03-27T10:30:59.857Z,1010.65
2023-03-27T10:31:59.819Z,1010.64
2023-03-27T10:33:00.138Z,1010.65
2023-03-27T10:34:00.291Z,1010.65
2023-03-27T10:34:59.757Z,1010.63
2023-03-27T10:35:59.814Z,1010.60
2023-03-27T10:36:59.692Z,1010.58
2023-03-27T10:37:59.700Z,1010.54
2023-03-27T10:38:59.687Z,1010.52
2023-03-27T10:39:59.802Z,1010.54
2023-03-27T10:40:59.662Z,1010.48
2023-03-27T10:41:59.686Z,1010.50
2023-03-27T10:42:59.711Z,1010.52
2023-03-27T10:43:59.658Z,1010.47
2023-03-27T10:44:59.662Z,1010.53
2023-03-27T10:45:59.656Z,1010.54
2023-03-27T10:46:59.615Z,1010.48
2023-03-27T10:47:59.968Z,1010.51
2023-03-27T10:48:59.584Z,1010.50
2023-03-27T10:49:59.623Z,1010.46
2023-03-27T10:50:59.574Z,1010.42
2023-03-27T10:51:59.585Z,1010.40
2023-03-27T10:52:59.591Z,1010.38
2023-03-27T10:53:59.603Z,1010.44
2023-03-27T10:54:59.584Z,1010.42
2023-03-27T10:55:59.531Z,1010.39
2023-03-27T10:56:59.589Z,1010.41
2023-03-27T10:57:59.536Z,1010.39
2023-03-27T10:58:59.510Z,1010.37
2023-03-27T11:00:00.308Z,1010.34
2023-03-27T11:00:59.717Z,1010.39
2023-03-27T11:02:00.361Z,1010.38
2023-03-27T11:02:59.480Z,1010.37
2023-03-27T11:03:59.524Z,1010.35
2023-03-27T11:04:59.479Z,1010.34
2023-03-27T11:06:00.445Z,1010.32
2023-03-27T11:06:59.465Z,1010.33
2023-03-27T11:07:59.480Z,1010.36
2023-03-27T11:08:59.428Z,1010.35
2023-03-27T11:09:59.409Z,1010.33
2023-03-27T11:10:59.496Z,1010.36
2023-03-27T11:11:59.371Z,1010.33
2023-03-27T11:12:59.343Z,1010.37
2023-03-27T11:13:59.338Z,1010.35
2023-03-27T11:14:59.296Z,1010.36
2023-03-27T11:15:59.375Z,1010.36
2023-03-27T11:16:59.397Z,1010.42
2023-03-27T11:17:59.338Z,1010.42
2023-03-27T11:18:59.265Z,1010.51
2023-03-27T11:19:59.295Z,1010.63
2023-03-27T11:20:59.345Z,1010.71
2023-03-27T11:21:59.292Z,1010.86
2023-03-27T11:22:59.273Z,1010.73
2023-03-27T11:23:59.249Z,1010.79
2023-03-27T11:24:59.285Z,1010.83
2023-03-27T11:25:59.232Z,1010.77
2023-03-27T11:26:59.213Z,1010.79
2023-03-27T11:27:59.218Z,1010.77
2023-03-27T11:28:59.177Z,1010.81
2023-03-27T11:29:59.448Z,1010.93
2023-03-27T11:30:59.377Z,1010.96
2023-03-27T11:31:59.273Z,1010.97
2023-03-27T11:32:59.201Z,1011.04
2023-03-27T11:33:59.150Z,1010.96
2023-03-27T11:34:59.406Z,1010.88
2023-03-27T11:35:59.140Z,1010.79
2023-03-27T11:36:59.943Z,1010.76
2023-03-27T11:37:59.183Z,1010.78
2023-03-27T11:38:59.112Z,1010.80
2023-03-27T11:39:59.107Z,1010.81
2023-03-27T11:40:59.312Z,1010.81
2023-03-27T11:41:59.080Z,1010.81
2023-03-27T11:42:59.088Z,1010.83
2023-03-27T11:43:59.071Z,1010.82
2023-03-27T11:44:59.039Z,1010.84
2023-03-27T11:45:59.107Z,1010.82
2023-03-27T11:46:59.165Z,1010.82
2023-03-27T11:47:59.036Z,1010.84
2023-03-27T11:48:59.048Z,1010.85
2023-03-27T11:49:59.009Z,1010.85
2023-03-27T11:50:59.237Z,1010.88
2023-03-27T11:51:59.086Z,1010.88
2023-03-27T11:52:59.047Z,1010.90
2023-03-27T11:53:58.927Z,1010.95
2023-03-27T11:54:58.922Z,1010.93
2023-03-27T11:55:58.995Z,1010.92
2023-03-27T11:56:58.934Z,1010.96
2023-03-27T11:57:58.926Z,1010.92
2023-03-27T11:58:58.908Z,1010.94
2023-03-27T11:59:59.038Z,1010.94
2023-03-27T12:00:58.990Z,1010.97
2023-03-27T12:01:58.988Z,1010.94
2023-03-27T12:02:58.981Z,1010.95
2023-03-27T12:03:58.962Z,1010.91
2023-03-27T12:04:58.854Z,1010.93
2023-03-27T12:05:58.841Z,1010.88
2023-03-27T12:07:04.339Z,1010.95